Time;durP1;ratioP1;P1;durP2;ratioP2;P2;SDS_P1;SDS_P2;PMS_P1;PMS_P2;Temp;Humidity;BMP_temperature;BMP_pressure;BME280_temperature;BME280_humidity;BME280_pressure;Samples;Min_cycle;Max_cycle;Signal;HPM_P1;HPM_P2
2023/07/06 00:01:27;;;;;;;3.40;3.10;;;;;;;19.23;46.20;99843.00;5028527;28;20202;-83
2023/07/06 00:03:56;;;;;;;3.72;3.03;;;;;;;19.27;45.93;99864.44;5028694;28;20222;-84
2023/07/06 00:06:24;;;;;;;3.28;2.70;;;;;;;19.26;45.70;99828.81;5028628;28;20281;-82
2023/07/06 00:08:52;;;;;;;3.70;3.40;;;;;;;19.32;45.36;99906.72;5028765;28;20213;-83
2023/07/06 00:11:20;;;;;;;3.00;2.70;;;;;;;19.33;45.35;99856.94;5028628;28;20273;-83
2023/07/06 00:13:46;;;;;;;4.47;3.00;;;;;;;19.36;45.23;99866.31;5028262;28;20739;-83
2023/07/06 00:16:15;;;;;;;2.97;2.67;;;;;;;19.38;44.67;99923.72;5034694;28;20201;-84
2023/07/06 00:18:42;;;;;;;4.30;3.10;;;;;;;19.43;44.26;100045.28;5029656;28;20240;-83
2023/07/06 00:21:10;;;;;;;2.97;2.78;;;;;;;19.42;44.34;99907.66;5028309;28;20559;-84
2023/07/06 00:23:36;;;;;;;3.35;2.92;;;;;;;19.39;44.36;99818.19;5028209;28;20261;-84
2023/07/06 00:26:04;;;;;;;3.97;2.90;;;;;;;19.31;44.57;99694.16;5028948;28;20271;-83
2023/07/06 00:28:30;;;;;;;3.40;3.10;;;;;;;19.31;44.74;99662.78;5048497;28;20200;-82
2023/07/06 00:31:02;;;;;;;2.92;2.70;;;;;;;19.35;44.41;99684.28;5047229;28;20205;-83
2023/07/06 00:33:31;;;;;;;3.50;3.20;;;;;;;19.32;44.25;99663.63;5047301;28;20243;-82
2023/07/06 00:35:57;;;;;;;3.42;2.80;;;;;;;19.27;44.59;99461.94;5030130;28;20683;-83
2023/07/06 00:38:24;;;;;;;3.08;2.78;;;;;;;19.27;44.75;99428.78;5028079;28;20199;-83
2023/07/06 00:40:53;;;;;;;5.38;3.13;;;;;;;19.26;44.59;99358.34;5027852;28;20709;-83
2023/07/06 00:43:21;;;;;;;3.95;3.00;;;;;;;19.18;45.45;99118.66;5030186;28;20225;-83
2023/07/06 00:45:53;;;;;;;3.28;2.97;;;;;;;19.19;45.45;99114.25;5032009;28;20284;-84
2023/07/06 00:48:26;;;;;;;3.15;2.80;;;;;;;19.19;45.23;99081.13;5031405;28;20289;-83
2023/07/06 00:50:57;;;;;;;3.45;3.15;;;;;;;19.13;45.77;98890.97;5031713;28;20263;-83
2023/07/06 00:53:28;;;;;;;4.47;2.88;;;;;;;19.13;45.66;98866.63;5031845;28;20225;-83
2023/07/06 00:55:57;;;;;;;4.25;3.05;;;;;;;19.12;45.29;98920.66;5031800;28;20655;-83
2023/07/06 00:58:29;;;;;;;3.33;2.80;;;;;;;19.06;45.45;98831.59;5031976;28;20208;-85
2023/07/06 01:01:00;;;;;;;3.20;2.90;;;;;;;19.05;45.58;98741.19;5031075;28;20745;-83
2023/07/06 01:03:27;;;;;;;3.17;2.90;;;;;;;19.09;45.21;98781.69;5031189;28;20230;-83
2023/07/06 01:06:00;;;;;;;2.78;2.58;;;;;;;19.10;45.82;98660.53;5031408;28;20202;-83
2023/07/06 01:08:27;;;;;;;6.50;2.55;;;;;;;19.02;46.39;98430.66;5031464;28;20206;-83
2023/07/06 01:10:56;;;;;;;2.63;2.42;;;;;;;19.01;46.38;98436.88;5031519;28;20210;-84
2023/07/06 01:13:24;;;;;;;3.13;2.90;;;;;;;19.09;45.44;98593.59;5039489;28;20249;-83
2023/07/06 01:16:11;;;;;;;3.55;3.05;;;;;;;19.09;44.95;98641.44;5051532;28;20208;-84
2023/07/06 01:18:46;;;;;;;2.95;2.70;;;;;;;19.05;45.31;98561.72;5036999;28;20198;-83
2023/07/06 01:21:20;;;;;;;3.25;2.70;;;;;;;19.08;45.46;98505.75;5031334;28;20201;-85
2023/07/06 01:24:23;;;;;;;3.70;2.75;;;;;;;19.09;45.46;98470.81;5031465;28;20229;-84
2023/07/06 01:27:22;;;;;;;2.60;2.40;;;;;;;19.13;45.34;98493.88;5038731;28;20197;-83
2023/07/06 01:30:25;;;;;;;4.22;2.95;;;;;;;19.18;44.99;98550.88;5051584;28;20208;-84
2023/07/06 01:32:58;;;;;;;2.90;2.53;;;;;;;19.20;44.75;98596.78;4989418;28;20226;-85
2023/07/06 01:35:35;;;;;;;3.00;2.70;;;;;;;19.23;44.73;98567.72;5011345;28;20269;-83
2023/07/06 01:38:02;;;;;;;3.45;2.75;;;;;;;19.14;44.91;98408.47;5015485;28;20193;-84
2023/07/06 01:40:29;;;;;;;3.72;3.13;;;;;;;19.05;45.34;98235.25;5031003;28;20679;-83
2023/07/06 01:42:55;;;;;;;3.22;2.92;;;;;;;19.06;45.52;98191.66;5030551;28;20272;-85
2023/07/06 01:45:24;;;;;;;6.53;2.83;;;;;;;19.00;45.96;98033.06;5031191;28;20584;-84
2023/07/06 01:47:56;;;;;;;3.40;2.90;;;;;;;18.88;46.85;97759.25;5031059;28;20268;-83
2023/07/06 01:50:30;;;;;;;3.28;2.65;;;;;;;18.94;46.47;97867.41;5030581;28;20707;-83
2023/07/06 01:53:05;;;;;;;4.07;2.90;;;;;;;18.92;45.70;97979.88;5030816;28;20242;-85
2023/07/06 01:55:40;;;;;;;3.55;2.78;;;;;;;18.92;45.34;98032.09;5029793;28;20255;-85
2023/07/06 01:58:11;;;;;;;3.60;3.15;;;;;;;18.95;45.20;98000.41;5030460;28;20233;-82
2023/07/06 02:00:42;;;;;;;3.47;3.17;;;;;;;18.95;44.81;98068.31;5030830;28;20237;-83
2023/07/06 02:03:12;;;;;;;2.92;2.72;;;;;;;19.01;44.30;98167.88;5030301;28;20234;-84
2023/07/06 02:05:41;;;;;;;4.30;2.72;;;;;;;18.87;45.07;97900.41;5030972;28;20281;-84
2023/07/06 02:08:08;;;;;;;2.92;2.63;;;;;;;18.91;44.85;97943.47;5030405;28;20619;-83
2023/07/06 02:10:34;;;;;;;2.97;2.72;;;;;;;18.89;44.66;97935.00;5039803;28;20663;-85
2023/07/06 02:13:03;;;;;;;3.58;2.83;;;;;;;18.84;44.87;97832.91;5050974;28;20217;-83
2023/07/06 02:15:30;;;;;;;3.80;3.17;;;;;;;18.84;45.14;97733.72;5050895;28;20202;-84
2023/07/06 02:17:57;;;;;;;3.30;3.00;;;;;;;18.81;45.27;97664.38;5041233;28;20234;-84
2023/07/06 02:20:24;;;;;;;3.08;2.88;;;;;;;18.63;46.47;97341.13;5030686;28;20596;-84
2023/07/06 02:22:51;;;;;;;4.00;2.90;;;;;;;18.65;46.28;97361.00;5029945;28;20690;-84
2023/07/06 02:25:18;;;;;;;4.30;2.90;;;;;;;18.47;46.83;97142.25;5030722;28;20210;-85
2023/07/06 02:27:44;;;;;;;3.15;2.95;;;;;;;18.48;46.68;97154.28;5033047;28;20214;-83
2023/07/06 02:30:11;;;;;;;3.25;2.83;;;;;;;18.45;47.01;97081.63;5034787;28;20241;-82
2023/07/06 02:32:39;;;;;;;2.92;2.72;;;;;;;18.46;46.63;97130.22;5029852;28;20222;-83
2023/07/06 02:35:06;;;;;;;2.78;2.58;;;;;;;18.52;46.25;97239.00;5030305;28;20206;-85
2023/07/06 02:37:34;;;;;;;2.92;2.55;;;;;;;18.53;45.96;97236.22;5029966;28;20198;-85
2023/07/06 02:40:00;;;;;;;4.32;3.03;;;;;;;18.54;46.10;97206.53;5030172;28;20629;-83
2023/07/06 02:42:27;;;;;;;3.33;2.92;;;;;;;18.54;45.29;97297.03;5030164;28;20233;-85
2023/07/06 02:44:57;;;;;;;3.08;2.78;;;;;;;18.43;45.27;97240.94;5030060;28;20198;-85
2023/07/06 02:47:23;;;;;;;2.97;2.67;;;;;;;18.44;45.47;97205.22;5029963;28;20201;-84
2023/07/06 02:49:49;;;;;;;3.17;2.80;;;;;;;18.39;45.37;97164.03;5030123;28;20736;-83
2023/07/06 02:52:16;;;;;;;3.10;2.80;;;;;;;18.41;45.38;97154.22;5028908;28;20210;-86
2023/07/06 02:54:44;;;;;;;3.55;2.88;;;;;;;18.42;45.16;97153.25;5030030;28;20269;-84
2023/07/06 02:57:10;;;;;;;3.60;3.10;;;;;;;18.39;45.37;97114.50;5029988;28;20268;-84
2023/07/06 02:59:37;;;;;;;2.70;2.35;;;;;;;18.33;45.10;97072.69;5029384;28;20202;-86
2023/07/06 03:02:04;;;;;;;3.35;2.70;;;;;;;18.23;45.45;96990.41;5029396;28;20198;-85
2023/07/06 03:04:32;;;;;;;4.00;2.97;;;;;;;18.24;45.21;96958.13;5029773;28;20824;-83
2023/07/06 03:06:58;;;;;;;3.60;3.08;;;;;;;18.29;44.29;97119.19;5040826;28;20698;-84
2023/07/06 03:09:25;;;;;;;3.50;2.72;;;;;;;18.23;44.88;96946.06;5049335;28;20201;-86
2023/07/06 03:11:53;;;;;;;4.30;3.00;;;;;;;18.17;45.55;96837.31;5049926;28;20209;-86
2023/07/06 03:14:21;;;;;;;2.85;2.65;;;;;;;18.14;45.20;96840.31;5050572;28;20225;-82
2023/07/06 03:16:48;;;;;;;3.30;2.80;;;;;;;18.10;45.08;96820.03;5049789;28;20292;-84
2023/07/06 03:19:15;;;;;;;3.20;2.90;;;;;;;18.08;44.94;96819.44;5030763;28;20198;-85
2023/07/06 03:21:41;;;;;;;4.07;2.80;;;;;;;18.08;44.12;96914.09;5030666;28;20205;-85
2023/07/06 03:24:08;;;;;;;3.20;2.90;;;;;;;18.07;44.18;96849.13;5030310;28;20280;-86
2023/07/06 03:26:36;;;;;;;3.33;2.80;;;;;;;18.10;44.02;96890.41;5035508;28;20197;-87
2023/07/06 03:29:05;;;;;;;3.90;2.67;;;;;;;18.13;43.78;96926.53;5050103;28;20237;-85
2023/07/06 03:31:32;;;;;;;3.42;2.72;;;;;;;18.01;44.63;96717.75;5049537;28;20205;-83
2023/07/06 03:33:59;;;;;;;2.80;2.47;;;;;;;17.98;44.71;96666.03;5050345;28;20248;-84
2023/07/06 03:36:25;;;;;;;2.92;2.70;;;;;;;17.83;45.42;96480.38;5050319;28;20209;-86
2023/07/06 03:38:52;;;;;;;3.85;2.90;;;;;;;17.82;45.46;96455.34;5038564;28;20583;-84
2023/07/06 03:41:18;;;;;;;5.00;3.63;;;;;;;17.72;46.31;96320.25;5030271;28;20210;-83
2023/07/06 03:43:45;;;;;;;3.17;2.88;;;;;;;17.77;46.04;96358.75;5029503;28;20321;-85
2023/07/06 03:46:14;;;;;;;4.20;2.90;;;;;;;17.84;46.05;96396.00;5030135;28;20586;-86
2023/07/06 03:48:40;;;;;;;3.60;2.88;;;;;;;17.94;45.49;96474.56;5030107;28;20198;-83
2023/07/06 03:51:08;;;;;;;2.92;2.70;;;;;;;17.94;45.19;96493.59;5030054;28;20268;-85
2023/07/06 03:53:35;;;;;;;2.92;2.72;;;;;;;18.01;45.45;96524.09;5029752;28;20308;-83
2023/07/06 03:56:02;;;;;;;3.63;3.00;;;;;;;17.92;45.43;96421.84;5030588;28;20201;-85
2023/07/06 03:58:29;;;;;;;3.10;2.70;;;;;;;17.88;45.80;96342.50;5030042;28;20202;-86
2023/07/06 04:00:56;;;;;;;3.30;3.00;;;;;;;17.88;45.54;96361.53;5033433;28;20198;-85
2023/07/06 04:03:24;;;;;;;3.33;3.03;;;;;;;17.95;45.37;96411.03;5040771;28;20218;-86
2023/07/06 04:05:51;;;;;;;3.10;2.90;;;;;;;18.00;45.35;96424.25;5049636;28;20581;-84
2023/07/06 04:08:19;;;;;;;4.45;3.38;;;;;;;17.89;45.67;96282.38;5049350;28;20200;-84
2023/07/06 04:10:45;;;;;;;3.25;2.85;;;;;;;17.99;45.47;96382.75;5049406;28;20230;-85
2023/07/06 04:13:14;;;;;;;3.53;3.10;;;;;;;17.97;45.61;96350.88;5049274;28;20853;-86
2023/07/06 04:15:43;;;;;;;4.72;3.35;;;;;;;18.01;45.24;96397.19;5049343;28;20211;-84
2023/07/06 04:18:10;;;;;;;3.28;2.97;;;;;;;18.09;44.92;96440.50;5041260;28;20663;-84
2023/07/06 04:20:38;;;;;;;3.88;2.63;;;;;;;18.18;44.93;96487.00;5035746;28;20278;-85
2023/07/06 04:23:05;;;;;;;3.30;3.00;;;;;;;18.20;44.57;96508.47;5053212;28;20272;-85
2023/07/06 04:25:34;;;;;;;3.70;2.95;;;;;;;18.22;44.19;96531.72;5053622;28;20235;-84
2023/07/06 04:28:03;;;;;;;4.50;3.58;;;;;;;18.27;44.04;96561.41;5036626;28;20732;-86
2023/07/06 04:30:32;;;;;;;5.35;3.35;;;;;;;18.36;43.71;96634.22;5034163;28;20210;-83
2023/07/06 04:32:59;;;;;;;4.95;3.25;;;;;;;18.32;43.93;96542.53;5034001;28;20222;-86
2023/07/06 04:35:26;;;;;;;3.22;2.85;;;;;;;18.34;43.76;96582.25;5033629;28;20198;-84
2023/07/06 04:37:55;;;;;;;3.53;3.22;;;;;;;18.29;43.80;96509.84;5033867;28;20198;-87
2023/07/06 04:40:26;;;;;;;3.47;3.17;;;;;;;18.39;43.23;96616.38;5034738;28;20260;-87
2023/07/06 04:42:55;;;;;;;3.05;2.75;;;;;;;18.52;43.01;96685.97;5033597;28;20741;-86
2023/07/06 04:45:25;;;;;;;4.88;3.30;;;;;;;18.55;42.73;96715.09;5034324;28;20646;-85
2023/07/06 04:47:53;;;;;;;3.30;3.00;;;;;;;18.45;42.96;96593.91;5033752;28;20194;-86
2023/07/06 04:50:22;;;;;;;3.45;3.15;;;;;;;18.55;43.00;96633.41;5033815;28;20226;-84
2023/07/06 04:52:51;;;;;;;4.07;3.30;;;;;;;18.69;42.59;96736.00;5033882;28;20953;-87
2023/07/06 04:55:22;;;;;;;5.82;3.30;;;;;;;18.79;42.24;96820.72;5031009;28;20198;-87
2023/07/06 04:57:49;;;;;;;3.70;3.40;;;;;;;18.84;41.81;96875.75;5041747;28;20201;-87
2023/07/06 05:00:17;;;;;;;3.80;3.40;;;;;;;18.95;41.72;96922.16;5032769;28;20198;-85
2023/07/06 05:02:45;;;;;;;5.00;3.60;;;;;;;19.06;41.29;97011.34;5033198;28;20313;-86
2023/07/06 05:05:12;;;;;;;3.58;3.22;;;;;;;19.19;41.16;97055.81;5033983;28;20202;-85
2023/07/06 05:07:39;;;;;;;3.92;3.53;;;;;;;19.21;41.29;97027.72;5034286;28;20252;-86
2023/07/06 05:10:06;;;;;;;3.70;3.40;;;;;;;19.30;40.93;97104.88;5033542;28;20205;-87
2023/07/06 05:12:34;;;;;;;3.60;3.03;;;;;;;19.33;39.98;97178.44;5033390;28;20244;-84
2023/07/06 05:15:02;;;;;;;3.88;3.20;;;;;;;19.36;40.09;97169.41;5033411;28;20221;-86
2023/07/06 05:17:28;;;;;;;3.22;2.92;;;;;;;19.43;40.31;97135.50;5032633;28;20206;-83
2023/07/06 05:19:55;;;;;;;4.07;3.25;;;;;;;19.49;40.28;97132.09;5033369;28;20667;-86
2023/07/06 05:22:23;;;;;;;4.47;3.40;;;;;;;19.59;39.75;97261.44;5032630;28;20198;-85
2023/07/06 05:24:50;;;;;;;5.07;3.15;;;;;;;19.74;39.34;97359.84;5032942;28;20254;-85
2023/07/06 05:27:17;;;;;;;3.72;3.25;;;;;;;19.84;39.37;97376.00;5043945;28;20198;-87
2023/07/06 05:29:44;;;;;;;4.75;3.20;;;;;;;19.99;39.20;97436.88;5051944;28;20237;-85
2023/07/06 05:32:11;;;;;;;8.38;3.78;;;;;;;20.06;39.29;97460.44;5051869;28;20292;-85
2023/07/06 05:34:37;;;;;;;6.43;5.30;;;;;;;20.12;37.10;97839.78;5052843;28;20197;-87
2023/07/06 05:37:04;;;;;;;7.70;6.97;;;;;;;20.11;36.70;97889.66;5046480;28;20221;-87
2023/07/06 05:39:31;;;;;;;3.47;3.17;;;;;;;20.04;36.05;97900.03;5032652;28;20198;-85
2023/07/06 05:41:57;;;;;;;3.50;3.20;;;;;;;20.06;36.63;97764.63;5032836;28;20252;-87
2023/07/06 05:44:25;;;;;;;3.33;3.03;;;;;;;20.12;35.56;97972.38;5032868;28;20229;-85
2023/07/06 05:46:52;;;;;;;3.90;3.00;;;;;;;20.16;34.53;98183.78;5032066;28;20198;-85
2023/07/06 05:49:19;;;;;;;7.80;3.33;;;;;;;20.35;35.10;98124.94;5032691;28;20252;-86
2023/07/06 05:51:45;;;;;;;6.25;2.72;;;;;;;20.48;34.40;98337.22;5032339;28;20236;-85
2023/07/06 05:54:11;;;;;;;3.35;2.92;;;;;;;20.53;33.10;98594.09;5037528;28;20244;-86
2023/07/06 05:56:38;;;;;;;3.45;3.00;;;;;;;20.57;32.60;98673.13;5044534;28;20251;-85
2023/07/06 05:59:05;;;;;;;3.97;2.45;;;;;;;20.56;32.34;98674.13;5052982;28;20674;-85
2023/07/06 06:01:32;;;;;;;3.92;3.03;;;;;;;20.50;33.46;98269.78;5052679;28;20288;-87
2023/07/06 06:04:01;;;;;;;4.18;2.90;;;;;;;20.61;33.04;98375.91;5052322;28;20709;-87
2023/07/06 06:06:28;;;;;;;4.28;3.35;;;;;;;20.72;32.72;98477.69;5053225;28;20211;-85
2023/07/06 06:08:55;;;;;;;3.58;2.85;;;;;;;20.81;32.44;98570.13;5051606;28;20205;-86
2023/07/06 06:11:22;;;;;;;4.80;2.80;;;;;;;20.87;32.22;98575.53;5051946;28;20307;-85
2023/07/06 06:13:49;;;;;;;5.55;2.88;;;;;;;20.77;31.83;98550.53;5032260;28;20571;-87
2023/07/06 06:16:16;;;;;;;3.83;2.72;;;;;;;20.69;30.97;98632.53;5032617;28;20209;-83
2023/07/06 06:18:44;;;;;;;3.33;2.83;;;;;;;20.75;30.78;98655.44;5032706;28;20205;-85
2023/07/06 06:21:12;;;;;;;3.58;2.65;;;;;;;20.95;30.79;98718.78;5032956;28;20202;-85
2023/07/06 06:23:42;;;;;;;3.13;2.60;;;;;;;21.10;30.90;98737.28;5031702;28;20230;-85
2023/07/06 06:26:08;;;;;;;4.50;2.83;;;;;;;21.12;30.91;98688.97;5034014;28;20625;-87
2023/07/06 06:28:35;;;;;;;5.13;2.83;;;;;;;21.14;29.98;98880.13;5052653;28;20205;-87
2023/07/06 06:31:02;;;;;;;6.05;2.85;;;;;;;21.11;30.03;98746.78;5050458;28;20201;-84
2023/07/06 06:33:29;;;;;;;3.00;2.70;;;;;;;21.11;29.84;98692.56;5051211;28;20222;-86
2023/07/06 06:35:58;;;;;;;3.33;3.03;;;;;;;21.00;30.75;98318.22;5052011;28;20204;-83
2023/07/06 06:38:26;;;;;;;3.92;3.03;;;;;;;21.06;31.39;98156.88;5043733;28;20206;-86
2023/07/06 06:40:53;;;;;;;18.27;16.33;;;;;;;21.00;31.30;98071.94;5031544;28;20209;-87
2023/07/06 06:43:19;;;;;;;9.82;8.88;;;;;;;20.91;28.98;98482.50;5032661;28;20223;-87
2023/07/06 06:45:45;;;;;;;4.75;4.35;;;;;;;20.92;29.79;98235.28;5032616;28;20252;-83
2023/07/06 06:48:12;;;;;;;3.72;2.80;;;;;;;20.84;29.30;98216.19;5032713;28;20577;-86
2023/07/06 06:50:38;;;;;;;3.15;2.85;;;;;;;20.88;28.67;98372.84;5040515;28;20255;-86
2023/07/06 06:53:04;;;;;;;3.35;3.03;;;;;;;20.81;27.14;98610.25;5045318;28;20217;-86
2023/07/06 06:55:32;;;;;;;2.65;2.45;;;;;;;20.77;26.82;98558.38;5053001;28;20731;-87
2023/07/06 06:57:58;;;;;;;3.15;2.85;;;;;;;20.65;27.60;98162.50;5052893;28;20202;-87
2023/07/06 07:00:25;;;;;;;4.32;2.65;;;;;;;20.73;28.24;98052.44;5052500;28;20197;-85
2023/07/06 07:02:51;;;;;;;2.88;2.67;;;;;;;20.85;27.85;98158.38;5052235;28;20228;-86
2023/07/06 07:05:18;;;;;;;2.95;2.65;;;;;;;21.02;28.85;97996.59;5051906;28;20221;-85
2023/07/06 07:07:44;;;;;;;2.72;2.50;;;;;;;21.18;28.06;98192.94;5050406;28;20212;-85
2023/07/06 07:10:12;;;;;;;3.42;2.67;;;;;;;21.14;27.90;98120.94;5031566;28;20229;-86
2023/07/06 07:12:41;;;;;;;5.95;2.78;;;;;;;21.14;28.12;97994.34;5033291;28;20255;-85
2023/07/06 07:15:09;;;;;;;2.85;2.50;;;;;;;21.20;27.28;98177.06;5035871;28;20202;-87
2023/07/06 07:17:36;;;;;;;6.93;4.03;;;;;;;21.23;27.29;98083.19;5032055;28;20244;-85
2023/07/06 07:20:03;;;;;;;4.45;3.85;;;;;;;21.33;27.39;98091.59;5031441;28;20217;-85
2023/07/06 07:22:30;;;;;;;4.82;2.65;;;;;;;21.26;27.38;97964.06;5049483;28;20228;-84
2023/07/06 07:24:58;;;;;;;2.92;2.63;;;;;;;21.22;27.42;97868.47;5052471;28;20308;-85
2023/07/06 07:27:25;;;;;;;3.10;2.80;;;;;;;21.19;28.05;97619.88;5039959;28;20213;-84
2023/07/06 07:29:53;;;;;;;4.10;2.80;;;;;;;21.17;28.44;97412.25;5031508;28;20209;-86
2023/07/06 07:32:20;;;;;;;3.20;2.90;;;;;;;21.10;28.56;97315.34;5030795;28;20324;-84
2023/07/06 07:34:50;;;;;;;3.20;2.83;;;;;;;21.05;28.58;97226.06;5031706;28;20674;-84
2023/07/06 07:37:18;;;;;;;3.22;2.60;;;;;;;21.07;28.59;97152.53;5031356;28;20233;-85
2023/07/06 07:39:45;;;;;;;3.30;2.80;;;;;;;21.24;28.46;97246.25;5031472;28;20198;-85
2023/07/06 07:42:12;;;;;;;3.20;2.90;;;;;;;21.39;28.67;97251.25;5031406;28;20205;-87
2023/07/06 07:44:38;;;;;;;4.65;2.95;;;;;;;21.48;29.17;97162.75;5030446;28;20378;-86
2023/07/06 07:47:07;;;;;;;3.25;2.92;;;;;;;21.57;29.39;97117.72;5042949;28;20259;-87
2023/07/06 07:49:35;;;;;;;5.55;2.60;;;;;;;21.71;28.78;97281.88;5035173;28;20197;-84
2023/07/06 07:52:01;;;;;;;5.22;3.30;;;;;;;21.87;28.32;97371.63;5029406;28;20303;-84
2023/07/06 07:54:28;;;;;;;2.83;2.60;;;;;;;22.09;27.63;97603.94;5031503;28;20218;-86
2023/07/06 07:56:54;;;;;;;2.83;2.53;;;;;;;22.29;27.38;97725.50;5030625;28;20202;-86
2023/07/06 07:59:23;;;;;;;2.75;2.55;;;;;;;22.29;26.14;97888.25;5030701;28;20212;-84
2023/07/06 08:01:50;;;;;;;3.30;3.00;;;;;;;22.32;26.07;97798.59;5031798;28;20402;-86
2023/07/06 08:04:18;;;;;;;2.90;2.70;;;;;;;22.32;26.30;97693.59;5031925;28;20233;-85
2023/07/06 08:06:44;;;;;;;3.75;2.90;;;;;;;22.52;25.97;97847.75;5031824;28;20773;-87
2023/07/06 08:09:13;;;;;;;4.95;3.10;;;;;;;22.60;26.36;97761.72;5032385;28;20614;-86
2023/07/06 08:11:41;;;;;;;3.00;2.70;;;;;;;22.61;26.36;97634.66;5031485;28;20236;-83
2023/07/06 08:14:09;;;;;;;3.15;2.58;;;;;;;22.70;25.65;97830.47;5032148;28;20217;-86
2023/07/06 08:16:35;;;;;;;4.78;2.85;;;;;;;22.73;25.77;97718.91;5033149;28;20268;-85
2023/07/06 08:19:05;;;;;;;3.45;3.15;;;;;;;22.84;25.33;97791.09;5032552;28;20198;-86
2023/07/06 08:21:33;;;;;;;3.13;2.78;;;;;;;22.81;24.97;97736.34;5032213;28;20289;-85
2023/07/06 08:24:00;;;;;;;3.70;3.15;;;;;;;22.97;24.90;97788.50;5032934;28;20772;-86
2023/07/06 08:26:29;;;;;;;3.40;2.80;;;;;;;22.90;24.58;97720.16;5035496;28;20197;-83
2023/07/06 08:28:55;;;;;;;3.58;2.92;;;;;;;22.86;24.33;97650.66;5051494;28;20209;-85
2023/07/06 08:31:22;;;;;;;4.68;3.50;;;;;;;22.86;24.74;97490.41;5051021;28;20735;-87
2023/07/06 08:33:49;;;;;;;3.40;3.10;;;;;;;22.80;24.32;97470.19;5051204;28;20668;-84
2023/07/06 08:36:18;;;;;;;3.33;3.03;;;;;;;22.85;23.78;97516.88;5052346;28;20205;-86
2023/07/06 08:38:46;;;;;;;3.05;2.83;;;;;;;23.10;23.38;97678.09;5043481;28;20655;-86
2023/07/06 08:41:21;;;;;;;2.80;2.50;;;;;;;23.24;24.10;97565.88;5031516;28;20213;-85
2023/07/06 08:43:49;;;;;;;2.70;2.50;;;;;;;23.39;22.71;97911.69;5043448;28;20282;-86
2023/07/06 08:46:15;;;;;;;2.95;2.75;;;;;;;23.43;22.87;97764.84;5053953;28;20698;-88
2023/07/06 08:48:42;;;;;;;4.80;2.85;;;;;;;23.45;22.51;97744.41;5036553;28;20211;-87
2023/07/06 08:51:17;;;;;;;2.90;2.70;;;;;;;23.48;22.90;97606.41;5034998;28;20273;-86
2023/07/06 08:53:51;;;;;;;2.90;2.60;;;;;;;23.43;22.52;97573.69;5033032;28;20252;-85
2023/07/06 08:56:21;;;;;;;4.00;2.63;;;;;;;23.40;22.40;97426.03;5033360;28;20721;-87
2023/07/06 08:58:48;;;;;;;5.15;3.10;;;;;;;23.43;23.16;97228.41;5032465;28;20203;-85
2023/07/06 09:01:21;;;;;;;4.38;3.22;;;;;;;23.51;22.80;97287.78;5033263;28;20207;-85
2023/07/06 09:03:50;;;;;;;3.15;2.90;;;;;;;23.55;22.47;97276.66;5034728;28;20260;-84
2023/07/06 09:06:21;;;;;;;3.63;2.90;;;;;;;23.66;22.66;97270.72;5037685;28;20229;-86
2023/07/06 09:08:53;;;;;;;3.67;3.00;;;;;;;23.63;21.51;97350.03;5037869;28;20198;-86
2023/07/06 09:11:22;;;;;;;3.17;2.75;;;;;;;23.71;21.33;97341.84;5038038;28;20252;-87
2023/07/06 09:13:51;;;;;;;3.45;2.95;;;;;;;24.02;20.61;97656.00;5037033;28;20214;-86
2023/07/06 09:16:20;;;;;;;3.20;2.85;;;;;;;24.29;20.24;97796.22;5037525;28;20276;-86
2023/07/06 09:18:47;;;;;;;3.13;2.83;;;;;;;24.47;20.75;97695.44;5038327;28;20202;-83
2023/07/06 09:21:14;;;;;;;3.92;3.33;;;;;;;24.38;19.54;97814.22;5035169;28;20268;-85
2023/07/06 09:23:45;;;;;;;6.13;3.15;;;;;;;24.15;20.62;97242.63;5035585;28;20230;-85
2023/07/06 09:26:22;;;;;;;3.30;3.00;;;;;;;24.11;21.82;96928.22;5035551;28;20226;-84
2023/07/06 09:28:48;;;;;;;3.50;3.20;;;;;;;24.25;22.71;96834.84;5055442;28;20292;-85
2023/07/06 09:31:18;;;;;;;3.40;3.10;;;;;;;24.55;22.80;96918.16;5052890;28;20629;-85
2023/07/06 09:33:47;;;;;;;3.40;3.10;;;;;;;24.53;21.90;96947.34;5054968;28;20231;-83
2023/07/06 09:36:19;;;;;;;3.10;2.80;;;;;;;24.18;22.40;96547.28;5054965;28;20228;-86
2023/07/06 09:38:46;;;;;;;3.08;2.83;;;;;;;23.83;22.72;96202.09;5046684;28;20567;-85
2023/07/06 09:41:23;;;;;;;4.15;3.15;;;;;;;23.91;22.45;96286.63;5045125;28;20280;-86
2023/07/06 09:43:53;;;;;;;2.95;2.75;;;;;;;24.28;21.75;96486.13;5055359;28;20217;-84
2023/07/06 09:46:20;;;;;;;3.53;2.90;;;;;;;24.62;22.23;96614.09;5054361;28;20221;-83
2023/07/06 09:48:46;;;;;;;4.95;4.18;;;;;;;24.87;21.23;96824.47;5036645;28;20198;-84
2023/07/06 09:51:15;;;;;;;3.50;3.20;;;;;;;24.93;20.94;96743.66;5034288;28;20634;-83
2023/07/06 09:53:49;;;;;;;3.20;3.00;;;;;;;24.88;19.90;96754.13;5032343;28;20745;-84
2023/07/06 09:56:16;;;;;;;3.53;3.22;;;;;;;25.11;20.87;96746.09;5032675;28;20222;-84
2023/07/06 09:58:45;;;;;;;5.25;3.35;;;;;;;25.06;21.02;96603.69;5037492;28;20259;-85
2023/07/06 10:01:17;;;;;;;5.75;4.50;;;;;;;25.27;20.32;96697.84;5031232;28;20213;-84
2023/07/06 10:03:55;;;;;;;5.80;5.30;;;;;;;25.22;21.30;96501.88;5032555;28;20218;-85
2023/07/06 10:06:34;;;;;;;5.25;3.28;;;;;;;25.18;20.88;96416.44;5032992;28;20225;-83
2023/07/06 10:09:16;;;;;;;3.53;3.22;;;;;;;25.33;20.58;96471.94;5032759;28;20233;-84
2023/07/06 10:11:50;;;;;;;3.42;3.13;;;;;;;25.40;19.30;96586.72;5012405;28;20210;-84
2023/07/06 10:14:28;;;;;;;3.45;3.15;;;;;;;25.53;19.07;96605.88;5012456;28;20646;-83
2023/07/06 10:17:03;;;;;;;4.20;3.55;;;;;;;25.80;18.66;96707.00;5013722;28;20206;-83
2023/07/06 10:19:33;;;;;;;4.20;3.33;;;;;;;25.95;18.34;96757.38;5033383;28;20260;-85
2023/07/06 10:22:12;;;;;;;3.83;3.30;;;;;;;25.65;18.44;96422.69;5047311;28;20251;-82
2023/07/06 10:24:48;;;;;;;5.18;3.42;;;;;;;25.44;18.79;96117.63;5054182;28;20220;-83
2023/07/06 10:27:19;;;;;;;3.30;3.00;;;;;;;25.68;18.64;96228.84;5042373;28;20201;-84
2023/07/06 10:29:52;;;;;;;3.30;3.08;;;;;;;25.55;19.20;96000.59;5033358;28;20640;-84
2023/07/06 10:32:24;;;;;;;5.43;3.50;;;;;;;25.44;18.94;95896.16;5031556;28;20670;-86
2023/07/06 10:34:54;;;;;;;3.38;3.08;;;;;;;25.36;19.83;95683.94;5033820;28;20190;-83
2023/07/06 10:37:24;;;;;;;5.97;3.30;;;;;;;25.23;19.91;95491.28;5042645;28;20255;-83
2023/07/06 10:40:04;;;;;;;3.65;3.10;;;;;;;25.16;19.52;95449.44;5030693;28;20715;-85
2023/07/06 10:42:32;;;;;;;7.15;4.70;;;;;;;25.03;19.84;95255.81;5030194;28;20224;-85
2023/07/06 10:45:02;;;;;;;3.60;3.30;;;;;;;25.46;19.03;95512.53;5030138;28;20222;-84
2023/07/06 10:47:39;;;;;;;6.25;3.53;;;;;;;25.61;18.39;95585.47;5030180;28;20198;-84
2023/07/06 10:50:30;;;;;;;3.80;3.50;;;;;;;25.61;17.92;95495.03;5030384;28;20205;-86
2023/07/06 10:53:02;;;;;;;5.22;4.75;;;;;;;25.54;19.22;95297.59;5028388;28;20225;-86
2023/07/06 10:55:34;;;;;;;4.30;3.92;;;;;;;25.42;18.19;95210.94;5029252;28;20202;-85
2023/07/06 10:58:14;;;;;;;3.40;3.13;;;;;;;25.33;18.25;95083.47;5031238;28;20216;-84
2023/07/06 11:00:44;;;;;;;3.83;3.25;;;;;;;25.27;18.51;94978.41;5030991;28;20202;-83
2023/07/06 11:03:16;;;;;;;3.88;3.58;;;;;;;25.34;18.18;94961.19;5023044;28;20229;-84
2023/07/06 11:05:53;;;;;;;9.25;3.75;;;;;;;25.29;17.18;94920.94;5030617;28;20226;-85
2023/07/06 11:09:01;;;;;;;4.03;3.72;;;;;;;25.37;17.78;94867.59;5030327;28;20996;-85
2023/07/06 11:11:28;;;;;;;5.47;4.32;;;;;;;25.39;18.96;94799.56;5013763;28;20207;-84
2023/07/06 11:13:55;;;;;;;3.75;3.40;;;;;;;25.39;18.74;94765.28;5012931;28;20234;-84
2023/07/06 11:16:27;;;;;;;3.95;3.65;;;;;;;25.39;19.49;94725.75;5013781;28;20203;-86
2023/07/06 11:18:58;;;;;;;3.72;3.42;;;;;;;25.31;18.92;94632.31;5028795;28;20288;-85
2023/07/06 11:21:39;;;;;;;3.78;3.47;;;;;;;25.15;18.88;94520.41;5042873;28;20197;-84
2023/07/06 11:24:10;;;;;;;3.58;3.28;;;;;;;25.07;19.98;94453.38;5052848;28;20225;-83
2023/07/06 11:26:46;;;;;;;3.85;3.55;;;;;;;25.29;19.08;94529.06;5047225;28;20604;-86
2023/07/06 11:29:13;;;;;;;3.60;3.30;;;;;;;25.45;17.68;94546.13;5033564;28;20216;-83
2023/07/06 11:31:59;;;;;;;5.15;3.60;;;;;;;25.71;17.68;94612.34;5040554;28;20205;-85
2023/07/06 11:34:39;;;;;;;4.10;3.70;;;;;;;25.85;18.40;94620.22;5048132;28;20221;-87
2023/07/06 11:37:12;;;;;;;3.58;3.28;;;;;;;26.05;17.22;94632.19;5054779;28;20220;-87
2023/07/06 11:39:49;;;;;;;5.63;5.00;;;;;;;26.01;17.51;94562.63;5036692;28;20294;-87
2023/07/06 11:42:47;;;;;;;7.07;6.47;;;;;;;26.14;18.31;94589.00;5034014;28;20198;-88
2023/07/06 11:45:24;;;;;;;4.15;3.75;;;;;;;26.58;16.81;94737.19;5034263;28;20221;-87